Palm Beach Gardens, Florida
Current Conditions -  °F | °C
As of 6:55 AM on Thursday 18 Dec 2014 (Local Time) from KPBI Reporting Station
Haze Haze  
Wind Chill: 57°   Ceiling: Unl
Heat Index: 57°   Visibility: 4mi
Dew Point: 57°   Wind: 5mph
Humidity: 100%   Direction: 290°WNW
Pressure: 30.12"   Gusts: NA
Location:  26.85°N, 80.09°W
Report Text: KPBI 181155Z 29004KT 4SM BR FEW040 14/14 A3012 RMK AO2 T01390139
Loading
Personal Weather Stations






























Interactive Weather Map New forecast layout! Learn more

10-Day Weather Forecast

Advertisements
Track Severe Weather on mobile